sensor_id;sensor_type;location;lat;lon;timestamp;pressure;altitude;pressure_sealevel;temperature;humidity
7075;BME280;3578;51.568;6.932;2023-07-29T00:00:46;52334.31;;;-144.14;100.00
7075;BME280;3578;51.568;6.932;2023-07-29T00:03:13;52326.31;;;-144.14;100.00
7075;BME280;3578;51.568;6.932;2023-07-29T00:05:41;52310.28;;;-144.14;100.00
7075;BME280;3578;51.568;6.932;2023-07-29T00:08:08;52312.28;;;-144.14;100.00
7075;BME280;3578;51.568;6.932;2023-07-29T00:10:37;52306.28;;;-144.14;100.00
7075;BME280;3578;51.568;6.932;2023-07-29T00:13:05;52308.28;;;-144.14;100.00
7075;BME280;3578;51.568;6.932;2023-07-29T00:15:32;52260.19;;;-144.14;100.00
7075;BME280;3578;51.568;6.932;2023-07-29T00:17:59;52284.25;;;-144.14;100.00
7075;BME280;3578;51.568;6.932;2023-07-29T00:20:26;52272.22;;;-144.14;100.00
7075;BME280;3578;51.568;6.932;2023-07-29T00:22:53;52260.19;;;-144.14;100.00
7075;BME280;3578;51.568;6.932;2023-07-29T00:25:21;52240.16;;;-144.14;100.00
7075;BME280;3578;51.568;6.932;2023-07-29T00:27:49;52252.19;;;-144.14;100.00
7075;BME280;3578;51.568;6.932;2023-07-29T00:30:16;52218.13;;;-144.14;100.00
7075;BME280;3578;51.568;6.932;2023-07-29T00:32:43;52196.09;;;-144.14;100.00
7075;BME280;3578;51.568;6.932;2023-07-29T00:35:10;52216.13;;;-144.14;100.00
7075;BME280;3578;51.568;6.932;2023-07-29T00:37:37;52188.06;;;-144.14;100.00
7075;BME280;3578;51.568;6.932;2023-07-29T00:40:13;52184.06;;;-144.14;100.00
7075;BME280;3578;51.568;6.932;2023-07-29T00:42:41;52156.00;;;-144.14;100.00
7075;BME280;3578;51.568;6.932;2023-07-29T00:45:10;52121.94;;;-144.14;100.00
7075;BME280;3578;51.568;6.932;2023-07-29T00:47:38;52103.94;;;-144.14;100.00
7075;BME280;3578;51.568;6.932;2023-07-29T00:50:06;52087.91;;;-144.14;100.00
7075;BME280;3578;51.568;6.932;2023-07-29T00:52:33;52055.84;;;-144.14;100.00
7075;BME280;3578;51.568;6.932;2023-07-29T00:55:00;52049.84;;;-144.14;100.00
7075;BME280;3578;51.568;6.932;2023-07-29T00:57:29;52043.81;;;-144.14;100.00
7075;BME280;3578;51.568;6.932;2023-07-29T00:59:57;52051.84;;;-144.14;100.00
7075;BME280;3578;51.568;6.932;2023-07-29T01:02:26;52053.84;;;-144.14;100.00
7075;BME280;3578;51.568;6.932;2023-07-29T01:04:56;52027.78;;;-144.14;100.00
7075;BME280;3578;51.568;6.932;2023-07-29T01:07:32;51989.72;;;-144.14;100.00
7075;BME280;3578;51.568;6.932;2023-07-29T01:10:04;51995.75;;;-144.14;100.00
7075;BME280;3578;51.568;6.932;2023-07-29T01:12:42;51971.69;;;-144.14;100.00
7075;BME280;3578;51.568;6.932;2023-07-29T01:15:16;51959.69;;;-144.14;100.00
7075;BME280;3578;51.568;6.932;2023-07-29T01:17:51;51925.63;;;-144.14;100.00
7075;BME280;3578;51.568;6.932;2023-07-29T01:20:20;51957.69;;;-144.14;100.00
7075;BME280;3578;51.568;6.932;2023-07-29T01:22:47;51947.66;;;-144.14;100.00
7075;BME280;3578;51.568;6.932;2023-07-29T01:25:16;51965.69;;;-144.14;100.00
7075;BME280;3578;51.568;6.932;2023-07-29T01:27:45;51925.63;;;-144.14;100.00
7075;BME280;3578;51.568;6.932;2023-07-29T01:30:12;51927.63;;;-144.14;100.00
7075;BME280;3578;51.568;6.932;2023-07-29T01:32:46;51913.59;;;-144.14;100.00
7075;BME280;3578;51.568;6.932;2023-07-29T01:35:21;51937.66;;;-144.14;100.00
7075;BME280;3578;51.568;6.932;2023-07-29T01:37:55;51931.63;;;-144.14;100.00
7075;BME280;3578;51.568;6.932;2023-07-29T01:40:27;51919.63;;;-144.14;100.00
7075;BME280;3578;51.568;6.932;2023-07-29T01:42:54;51915.59;;;-144.14;100.00
7075;BME280;3578;51.568;6.932;2023-07-29T01:45:23;51911.59;;;-144.14;100.00
7075;BME280;3578;51.568;6.932;2023-07-29T01:47:51;51883.56;;;-144.14;100.00
7075;BME280;3578;51.568;6.932;2023-07-29T01:50:18;51891.56;;;-144.14;100.00
7075;BME280;3578;51.568;6.932;2023-07-29T01:52:45;51887.56;;;-144.14;100.00
7075;BME280;3578;51.568;6.932;2023-07-29T01:55:12;51869.53;;;-144.14;100.00
7075;BME280;3578;51.568;6.932;2023-07-29T01:57:40;51843.50;;;-144.14;100.00
7075;BME280;3578;51.568;6.932;2023-07-29T02:00:11;51875.53;;;-144.14;100.00
7075;BME280;3578;51.568;6.932;2023-07-29T02:02:38;51861.53;;;-144.14;100.00
7075;BME280;3578;51.568;6.932;2023-07-29T02:05:06;51853.50;;;-144.14;100.00
7075;BME280;3578;51.568;6.932;2023-07-29T02:07:33;51813.44;;;-144.14;100.00
7075;BME280;3578;51.568;6.932;2023-07-29T02:10:00;51861.53;;;-144.14;100.00
7075;BME280;3578;51.568;6.932;2023-07-29T02:12:27;51881.56;;;-144.14;100.00
7075;BME280;3578;51.568;6.932;2023-07-29T02:14:55;51823.47;;;-144.14;100.00
7075;BME280;3578;51.568;6.932;2023-07-29T02:17:22;51819.44;;;-144.14;100.00
7075;BME280;3578;51.568;6.932;2023-07-29T02:19:49;51767.38;;;-144.14;100.00
7075;BME280;3578;51.568;6.932;2023-07-29T02:22:17;51765.38;;;-144.14;100.00
7075;BME280;3578;51.568;6.932;2023-07-29T02:24:45;51757.34;;;-144.14;100.00
7075;BME280;3578;51.568;6.932;2023-07-29T02:27:12;51771.38;;;-144.14;100.00
7075;BME280;3578;51.568;6.932;2023-07-29T02:29:39;51763.34;;;-144.14;100.00
7075;BME280;3578;51.568;6.932;2023-07-29T02:32:07;51751.34;;;-144.14;100.00
7075;BME280;3578;51.568;6.932;2023-07-29T02:34:34;51753.34;;;-144.14;100.00
7075;BME280;3578;51.568;6.932;2023-07-29T02:37:01;51745.34;;;-144.14;100.00
7075;BME280;3578;51.568;6.932;2023-07-29T02:39:28;51721.28;;;-144.14;100.00
7075;BME280;3578;51.568;6.932;2023-07-29T02:41:55;51695.25;;;-144.14;100.00
7075;BME280;3578;51.568;6.932;2023-07-29T02:44:24;51677.22;;;-144.14;100.00
7075;BME280;3578;51.568;6.932;2023-07-29T02:46:51;51653.19;;;-144.14;100.00
7075;BME280;3578;51.568;6.932;2023-07-29T02:49:21;51639.16;;;-144.14;100.00
7075;BME280;3578;51.568;6.932;2023-07-29T02:51:48;51643.16;;;-144.14;100.00
7075;BME280;3578;51.568;6.932;2023-07-29T02:54:15;51659.19;;;-144.14;100.00
7075;BME280;3578;51.568;6.932;2023-07-29T02:56:42;51671.22;;;-144.14;100.00
7075;BME280;3578;51.568;6.932;2023-07-29T02:59:09;51649.19;;;-144.14;100.00
7075;BME280;3578;51.568;6.932;2023-07-29T03:01:36;51621.13;;;-144.14;100.00
7075;BME280;3578;51.568;6.932;2023-07-29T03:04:03;51619.13;;;-144.14;100.00
7075;BME280;3578;51.568;6.932;2023-07-29T03:06:32;51623.13;;;-144.14;100.00
7075;BME280;3578;51.568;6.932;2023-07-29T03:08:59;51605.09;;;-144.14;100.00
7075;BME280;3578;51.568;6.932;2023-07-29T03:11:26;51593.09;;;-144.14;100.00
7075;BME280;3578;51.568;6.932;2023-07-29T03:13:52;51561.03;;;-144.14;100.00
7075;BME280;3578;51.568;6.932;2023-07-29T03:16:19;51589.09;;;-144.14;100.00
7075;BME280;3578;51.568;6.932;2023-07-29T03:18:49;51579.06;;;-144.14;100.00
7075;BME280;3578;51.568;6.932;2023-07-29T03:21:16;51573.06;;;-144.14;100.00
7075;BME280;3578;51.568;6.932;2023-07-29T03:23:44;51549.03;;;-144.14;100.00
7075;BME280;3578;51.568;6.932;2023-07-29T03:26:11;51563.03;;;-144.14;100.00
7075;BME280;3578;51.568;6.932;2023-07-29T03:28:41;51555.03;;;-144.14;100.00
7075;BME280;3578;51.568;6.932;2023-07-29T03:31:09;51573.06;;;-144.14;100.00
7075;BME280;3578;51.568;6.932;2023-07-29T03:33:36;51581.06;;;-144.14;100.00
7075;BME280;3578;51.568;6.932;2023-07-29T03:36:03;51577.06;;;-144.14;100.00
7075;BME280;3578;51.568;6.932;2023-07-29T03:38:30;51607.13;;;-144.14;100.00
7075;BME280;3578;51.568;6.932;2023-07-29T03:41:00;51555.03;;;-144.14;100.00
7075;BME280;3578;51.568;6.932;2023-07-29T03:43:28;51514.97;;;-144.14;100.00
7075;BME280;3578;51.568;6.932;2023-07-29T03:45:55;51531.00;;;-144.14;100.00
7075;BME280;3578;51.568;6.932;2023-07-29T03:48:22;51567.06;;;-144.14;100.00
7075;BME280;3578;51.568;6.932;2023-07-29T03:50:49;51520.97;;;-144.14;100.00
7075;BME280;3578;51.568;6.932;2023-07-29T03:53:16;51543.00;;;-144.14;100.00
7075;BME280;3578;51.568;6.932;2023-07-29T03:55:43;51520.97;;;-144.14;100.00
7075;BME280;3578;51.568;6.932;2023-07-29T03:58:12;51535.00;;;-144.14;100.00
7075;BME280;3578;51.568;6.932;2023-07-29T04:00:39;51553.03;;;-144.14;100.00
7075;BME280;3578;51.568;6.932;2023-07-29T04:03:06;51571.06;;;-144.14;100.00
7075;BME280;3578;51.568;6.932;2023-07-29T04:05:33;51506.97;;;-144.14;100.00
7075;BME280;3578;51.568;6.932;2023-07-29T04:08:00;51539.00;;;-144.14;100.00
7075;BME280;3578;51.568;6.932;2023-07-29T04:10:27;51547.03;;;-144.14;100.00
7075;BME280;3578;51.568;6.932;2023-07-29T04:12:57;51583.06;;;-144.14;100.00
7075;BME280;3578;51.568;6.932;2023-07-29T04:15:25;51579.06;;;-144.14;100.00
7075;BME280;3578;51.568;6.932;2023-07-29T04:17:52;51595.09;;;-144.14;100.00
7075;BME280;3578;51.568;6.932;2023-07-29T04:20:19;51571.06;;;-144.14;100.00
7075;BME280;3578;51.568;6.932;2023-07-29T04:22:46;51549.03;;;-144.14;100.00
7075;BME280;3578;51.568;6.932;2023-07-29T04:25:13;51569.06;;;-144.14;100.00
7075;BME280;3578;51.568;6.932;2023-07-29T04:27:40;51537.00;;;-144.14;100.00
7075;BME280;3578;51.568;6.932;2023-07-29T04:30:08;51522.97;;;-144.14;100.00
7075;BME280;3578;51.568;6.932;2023-07-29T04:32:36;51522.97;;;-144.14;100.00
7075;BME280;3578;51.568;6.932;2023-07-29T04:35:05;51561.03;;;-144.14;100.00
7075;BME280;3578;51.568;6.932;2023-07-29T04:37:32;51520.97;;;-144.14;100.00
7075;BME280;3578;51.568;6.932;2023-07-29T04:39:59;51539.00;;;-144.14;100.00
7075;BME280;3578;51.568;6.932;2023-07-29T04:42:26;51537.00;;;-144.14;100.00
7075;BME280;3578;51.568;6.932;2023-07-29T04:44:52;51518.97;;;-144.14;100.00
7075;BME280;3578;51.568;6.932;2023-07-29T04:47:20;51504.97;;;-144.14;100.00
7075;BME280;3578;51.568;6.932;2023-07-29T04:49:48;51518.97;;;-144.14;100.00
7075;BME280;3578;51.568;6.932;2023-07-29T04:52:15;51555.03;;;-144.14;100.00
7075;BME280;3578;51.568;6.932;2023-07-29T04:54:42;51522.97;;;-144.14;100.00
7075;BME280;3578;51.568;6.932;2023-07-29T04:57:09;51531.00;;;-144.14;100.00
7075;BME280;3578;51.568;6.932;2023-07-29T04:59:35;51535.00;;;-144.14;100.00
7075;BME280;3578;51.568;6.932;2023-07-29T05:02:02;51539.00;;;-144.14;100.00
7075;BME280;3578;51.568;6.932;2023-07-29T05:04:29;51555.03;;;-144.14;100.00
7075;BME280;3578;51.568;6.932;2023-07-29T05:06:58;51567.06;;;-144.14;100.00
7075;BME280;3578;51.568;6.932;2023-07-29T05:09:25;51555.03;;;-144.14;100.00
7075;BME280;3578;51.568;6.932;2023-07-29T05:11:52;51581.06;;;-144.14;100.00
7075;BME280;3578;51.568;6.932;2023-07-29T05:14:19;51567.06;;;-144.14;100.00
7075;BME280;3578;51.568;6.932;2023-07-29T05:16:46;51569.06;;;-144.14;100.00
7075;BME280;3578;51.568;6.932;2023-07-29T05:19:13;51577.06;;;-144.14;100.00
7075;BME280;3578;51.568;6.932;2023-07-29T05:21:40;51593.09;;;-144.14;100.00
7075;BME280;3578;51.568;6.932;2023-07-29T05:24:08;51571.06;;;-144.14;100.00
7075;BME280;3578;51.568;6.932;2023-07-29T05:26:35;51579.06;;;-144.14;100.00
7075;BME280;3578;51.568;6.932;2023-07-29T05:29:02;51597.09;;;-144.14;100.00
7075;BME280;3578;51.568;6.932;2023-07-29T05:31:29;51611.13;;;-144.14;100.00
7075;BME280;3578;51.568;6.932;2023-07-29T05:33:56;51595.09;;;-144.14;100.00
7075;BME280;3578;51.568;6.932;2023-07-29T05:36:23;51663.19;;;-144.14;100.00
7075;BME280;3578;51.568;6.932;2023-07-29T05:38:51;51655.19;;;-144.14;100.00
7075;BME280;3578;51.568;6.932;2023-07-29T05:41:20;51671.22;;;-144.14;100.00
7075;BME280;3578;51.568;6.932;2023-07-29T05:43:47;51643.16;;;-144.14;100.00
7075;BME280;3578;51.568;6.932;2023-07-29T05:46:14;51643.16;;;-144.14;100.00
7075;BME280;3578;51.568;6.932;2023-07-29T05:48:41;51707.28;;;-144.14;100.00
7075;BME280;3578;51.568;6.932;2023-07-29T05:51:08;51791.41;;;-144.14;100.00
7075;BME280;3578;51.568;6.932;2023-07-29T05:53:35;51809.44;;;-144.14;100.00
7075;BME280;3578;51.568;6.932;2023-07-29T05:56:02;51885.56;;;-144.14;100.00
7075;BME280;3578;51.568;6.932;2023-07-29T05:58:30;51845.50;;;-144.14;100.00
7075;BME280;3578;51.568;6.932;2023-07-29T06:00:57;51847.50;;;-144.14;100.00
7075;BME280;3578;51.568;6.932;2023-07-29T06:03:24;51899.59;;;-144.14;100.00
7075;BME280;3578;51.568;6.932;2023-07-29T06:05:52;51865.53;;;-144.14;100.00
7075;BME280;3578;51.568;6.932;2023-07-29T06:08:19;51885.56;;;-144.14;100.00
7075;BME280;3578;51.568;6.932;2023-07-29T06:10:45;51859.50;;;-144.14;100.00
7075;BME280;3578;51.568;6.932;2023-07-29T06:13:12;51877.53;;;-144.14;100.00
7075;BME280;3578;51.568;6.932;2023-07-29T06:15:41;51883.56;;;-144.14;100.00
7075;BME280;3578;51.568;6.932;2023-07-29T06:18:08;51851.50;;;-144.14;100.00
7075;BME280;3578;51.568;6.932;2023-07-29T06:20:35;51825.47;;;-144.14;100.00
7075;BME280;3578;51.568;6.932;2023-07-29T06:23:02;51801.41;;;-144.14;100.00
7075;BME280;3578;51.568;6.932;2023-07-29T06:25:29;51831.47;;;-144.14;100.00
7075;BME280;3578;51.568;6.932;2023-07-29T06:27:56;51925.63;;;-144.14;100.00
7075;BME280;3578;51.568;6.932;2023-07-29T06:30:24;51927.63;;;-144.14;100.00
7075;BME280;3578;51.568;6.932;2023-07-29T06:32:52;51959.69;;;-144.14;100.00
7075;BME280;3578;51.568;6.932;2023-07-29T06:35:19;51991.72;;;-144.14;100.00
7075;BME280;3578;51.568;6.932;2023-07-29T06:37:46;51973.72;;;-144.14;100.00
7075;BME280;3578;51.568;6.932;2023-07-29T06:40:13;52005.75;;;-144.14;100.00
7075;BME280;3578;51.568;6.932;2023-07-29T06:42:40;52015.78;;;-144.14;100.00
7075;BME280;3578;51.568;6.932;2023-07-29T06:45:08;52047.84;;;-144.14;100.00
7075;BME280;3578;51.568;6.932;2023-07-29T06:47:35;52079.88;;;-144.14;100.00
7075;BME280;3578;51.568;6.932;2023-07-29T06:50:05;52113.94;;;-144.14;100.00
7075;BME280;3578;51.568;6.932;2023-07-29T06:52:32;52079.88;;;-144.14;100.00
7075;BME280;3578;51.568;6.932;2023-07-29T06:54:59;52107.94;;;-144.14;100.00
7075;BME280;3578;51.568;6.932;2023-07-29T06:57:27;52152.00;;;-144.14;100.00
7075;BME280;3578;51.568;6.932;2023-07-29T06:59:54;52135.97;;;-144.14;100.00
7075;BME280;3578;51.568;6.932;2023-07-29T07:02:21;52178.06;;;-144.14;100.00
7075;BME280;3578;51.568;6.932;2023-07-29T07:04:48;52248.19;;;-144.14;100.00
7075;BME280;3578;51.568;6.932;2023-07-29T07:07:16;52354.34;;;-144.14;98.42
7075;BME280;3578;51.568;6.932;2023-07-29T07:09:44;52400.44;;;-144.14;96.81
7075;BME280;3578;51.568;6.932;2023-07-29T07:12:11;52444.53;;;-144.14;96.30
7075;BME280;3578;51.568;6.932;2023-07-29T07:14:37;52488.59;;;-144.14;95.31
7075;BME280;3578;51.568;6.932;2023-07-29T07:17:05;52584.78;;;-144.14;94.41
7075;BME280;3578;51.568;6.932;2023-07-29T07:19:32;52709.00;;;-144.14;92.94
7075;BME280;3578;51.568;6.932;2023-07-29T07:21:59;52855.28;;;-144.14;90.29
7075;BME280;3578;51.568;6.932;2023-07-29T07:24:27;53033.63;;;-144.14;86.81
7075;BME280;3578;51.568;6.932;2023-07-29T07:26:54;53161.91;;;-144.14;86.55
7075;BME280;3578;51.568;6.932;2023-07-29T07:29:21;53205.97;;;-144.14;86.13
7075;BME280;3578;51.568;6.932;2023-07-29T07:31:51;53212.00;;;-144.14;86.49
7075;BME280;3578;51.568;6.932;2023-07-29T07:34:19;53161.91;;;-144.14;88.04
7075;BME280;3578;51.568;6.932;2023-07-29T07:36:46;53115.81;;;-144.14;88.87
7075;BME280;3578;51.568;6.932;2023-07-29T07:39:13;53019.59;;;-144.14;89.42
7075;BME280;3578;51.568;6.932;2023-07-29T07:41:42;52987.53;;;-144.14;89.61
7075;BME280;3578;51.568;6.932;2023-07-29T07:44:09;52957.50;;;-144.14;90.75
7075;BME280;3578;51.568;6.932;2023-07-29T07:46:36;52945.47;;;-144.14;90.62
7075;BME280;3578;51.568;6.932;2023-07-29T07:49:03;52911.41;;;-144.14;91.71
7075;BME280;3578;51.568;6.932;2023-07-29T07:51:30;52949.47;;;-144.14;92.01
7075;BME280;3578;51.568;6.932;2023-07-29T07:53:57;52981.53;;;-144.14;90.36
7075;BME280;3578;51.568;6.932;2023-07-29T07:56:24;52999.56;;;-144.14;90.00
7075;BME280;3578;51.568;6.932;2023-07-29T07:58:53;53017.59;;;-144.14;90.14
7075;BME280;3578;51.568;6.932;2023-07-29T08:01:20;53061.69;;;-144.14;90.38
7075;BME280;3578;51.568;6.932;2023-07-29T08:03:46;53099.78;;;-144.14;89.58
7075;BME280;3578;51.568;6.932;2023-07-29T08:06:13;53187.94;;;-144.14;88.85
7075;BME280;3578;51.568;6.932;2023-07-29T08:08:40;53234.03;;;-144.14;87.71
7075;BME280;3578;51.568;6.932;2023-07-29T08:11:08;53210.00;;;-144.14;86.81
7075;BME280;3578;51.568;6.932;2023-07-29T08:13:35;53310.19;;;-144.14;87.34
7075;BME280;3578;51.568;6.932;2023-07-29T08:16:03;53344.25;;;-144.14;87.98
7075;BME280;3578;51.568;6.932;2023-07-29T08:18:30;53392.38;;;-144.14;87.06
7075;BME280;3578;51.568;6.932;2023-07-29T08:20:59;53458.50;;;-144.14;85.59
7075;BME280;3578;51.568;6.932;2023-07-29T08:23:29;53400.38;;;-144.14;83.92
7075;BME280;3578;51.568;6.932;2023-07-29T08:25:58;53408.41;;;-144.14;85.71
7075;BME280;3578;51.568;6.932;2023-07-29T08:28:28;53378.34;;;-144.14;86.01
7075;BME280;3578;51.568;6.932;2023-07-29T08:30:55;53366.31;;;-144.14;86.64
7075;BME280;3578;51.568;6.932;2023-07-29T08:33:23;53386.34;;;-144.14;86.88
7075;BME280;3578;51.568;6.932;2023-07-29T08:35:51;53382.34;;;-144.14;85.54
7075;BME280;3578;51.568;6.932;2023-07-29T08:38:17;53406.41;;;-144.14;85.83
7075;BME280;3578;51.568;6.932;2023-07-29T08:40:49;53374.31;;;-144.14;85.97
7075;BME280;3578;51.568;6.932;2023-07-29T08:43:19;53406.41;;;-144.14;86.39
7075;BME280;3578;51.568;6.932;2023-07-29T08:45:47;53402.38;;;-144.14;87.05
7075;BME280;3578;51.568;6.932;2023-07-29T08:48:16;53442.47;;;-144.14;87.99
7075;BME280;3578;51.568;6.932;2023-07-29T08:50:47;53524.66;;;-144.14;86.81
7075;BME280;3578;51.568;6.932;2023-07-29T08:53:15;53490.56;;;-144.14;85.75
7075;BME280;3578;51.568;6.932;2023-07-29T08:55:43;53586.78;;;-144.14;81.98
7075;BME280;3578;51.568;6.932;2023-07-29T08:58:10;53570.75;;;-144.14;83.24
7075;BME280;3578;51.568;6.932;2023-07-29T09:00:38;53606.81;;;-144.14;84.11
7075;BME280;3578;51.568;6.932;2023-07-29T09:03:06;53680.97;;;-144.14;83.64
7075;BME280;3578;51.568;6.932;2023-07-29T09:05:33;53805.25;;;-144.14;80.88
7075;BME280;3578;51.568;6.932;2023-07-29T09:08:02;53795.22;;;-144.14;79.49
7075;BME280;3578;51.568;6.932;2023-07-29T09:10:35;53837.31;;;-144.14;80.52
7075;BME280;3578;51.568;6.932;2023-07-29T09:13:03;53835.31;;;-144.14;82.09
7075;BME280;3578;51.568;6.932;2023-07-29T09:15:31;53883.44;;;-144.14;80.73
7075;BME280;3578;51.568;6.932;2023-07-29T09:17:59;53923.50;;;-144.14;79.71
7075;BME280;3578;51.568;6.932;2023-07-29T09:20:35;54035.75;;;-144.14;78.07
7075;BME280;3578;51.568;6.932;2023-07-29T09:23:08;54039.78;;;-144.14;79.01
7075;BME280;3578;51.568;6.932;2023-07-29T09:25:37;54055.81;;;-144.14;79.24
7075;BME280;3578;51.568;6.932;2023-07-29T09:28:10;54101.91;;;-144.14;79.10
7075;BME280;3578;51.568;6.932;2023-07-29T09:30:38;54055.81;;;-144.14;80.22
7075;BME280;3578;51.568;6.932;2023-07-29T09:33:06;53987.66;;;-144.14;82.51
7075;BME280;3578;51.568;6.932;2023-07-29T09:35:35;54029.75;;;-144.14;79.99
7075;BME280;3578;51.568;6.932;2023-07-29T09:38:05;54003.69;;;-144.14;81.04
7075;BME280;3578;51.568;6.932;2023-07-29T09:40:36;53941.56;;;-144.14;82.31
7075;BME280;3578;51.568;6.932;2023-07-29T09:43:05;53905.47;;;-144.14;84.45
7075;BME280;3578;51.568;6.932;2023-07-29T09:45:35;53845.34;;;-144.14;85.08
7075;BME280;3578;51.568;6.932;2023-07-29T09:48:03;53869.41;;;-144.14;86.14
7075;BME280;3578;51.568;6.932;2023-07-29T09:50:35;53771.19;;;-144.14;87.17
7075;BME280;3578;51.568;6.932;2023-07-29T09:53:03;53735.09;;;-144.14;87.27
7075;BME280;3578;51.568;6.932;2023-07-29T09:55:33;53689.00;;;-144.14;88.16
7075;BME280;3578;51.568;6.932;2023-07-29T09:58:01;53646.91;;;-144.14;90.51
7075;BME280;3578;51.568;6.932;2023-07-29T10:00:33;53672.97;;;-144.14;89.33
7075;BME280;3578;51.568;6.932;2023-07-29T10:03:00;53799.25;;;-144.14;86.86
7075;BME280;3578;51.568;6.932;2023-07-29T10:05:29;53827.31;;;-144.14;85.98
7075;BME280;3578;51.568;6.932;2023-07-29T10:07:57;53915.50;;;-144.14;85.29
7075;BME280;3578;51.568;6.932;2023-07-29T10:10:26;53987.66;;;-144.14;82.85
7075;BME280;3578;51.568;6.932;2023-07-29T10:12:54;54093.91;;;-144.14;82.58
7075;BME280;3578;51.568;6.932;2023-07-29T10:15:23;54146.03;;;-144.14;81.56
7075;BME280;3578;51.568;6.932;2023-07-29T10:17:52;54170.06;;;-144.14;81.01
7075;BME280;3578;51.568;6.932;2023-07-29T10:20:19;54254.28;;;-144.14;78.94
7075;BME280;3578;51.568;6.932;2023-07-29T10:22:47;54268.31;;;-144.14;78.69
7075;BME280;3578;51.568;6.932;2023-07-29T10:25:17;54282.34;;;-144.14;78.14
7075;BME280;3578;51.568;6.932;2023-07-29T10:27:51;54286.34;;;-144.14;78.81
7075;BME280;3578;51.568;6.932;2023-07-29T10:30:19;54322.44;;;-144.14;80.65
7075;BME280;3578;51.568;6.932;2023-07-29T10:32:46;54394.59;;;-144.14;77.81
7075;BME280;3578;51.568;6.932;2023-07-29T10:35:14;54446.72;;;-144.14;76.30
7075;BME280;3578;51.568;6.932;2023-07-29T10:37:42;54454.75;;;-144.14;77.70
7075;BME280;3578;51.568;6.932;2023-07-29T10:40:11;54446.72;;;-144.14;80.34
7075;BME280;3578;51.568;6.932;2023-07-29T10:42:41;54540.94;;;-144.14;75.38
7075;BME280;3578;51.568;6.932;2023-07-29T10:45:27;54534.94;;;-144.14;76.00
7075;BME280;3578;51.568;6.932;2023-07-29T10:48:06;54504.88;;;-144.14;73.87
7075;BME280;3578;51.568;6.932;2023-07-29T10:50:34;54432.69;;;-144.14;75.88
7075;BME280;3578;51.568;6.932;2023-07-29T10:53:01;54420.66;;;-144.14;77.49
7075;BME280;3578;51.568;6.932;2023-07-29T10:55:32;54470.78;;;-144.14;76.04
7075;BME280;3578;51.568;6.932;2023-07-29T10:58:08;54452.75;;;-144.14;77.78
7075;BME280;3578;51.568;6.932;2023-07-29T11:00:38;54400.63;;;-144.14;79.51
7075;BME280;3578;51.568;6.932;2023-07-29T11:03:06;54354.50;;;-144.14;81.35
7075;BME280;3578;51.568;6.932;2023-07-29T11:05:45;54442.72;;;-144.14;78.91
7075;BME280;3578;51.568;6.932;2023-07-29T11:08:26;54480.81;;;-144.14;79.81
7075;BME280;3578;51.568;6.932;2023-07-29T11:11:06;54464.78;;;-144.14;79.69
7075;BME280;3578;51.568;6.932;2023-07-29T11:13:34;54480.81;;;-144.14;78.75
7075;BME280;3578;51.568;6.932;2023-07-29T11:16:03;54420.66;;;-144.14;80.64
7075;BME280;3578;51.568;6.932;2023-07-29T11:18:32;54368.53;;;-144.14;81.61
7075;BME280;3578;51.568;6.932;2023-07-29T11:21:02;54348.50;;;-144.14;82.01
7075;BME280;3578;51.568;6.932;2023-07-29T11:23:31;54342.47;;;-144.14;82.68
7075;BME280;3578;51.568;6.932;2023-07-29T11:25:59;54280.34;;;-144.14;83.93
7075;BME280;3578;51.568;6.932;2023-07-29T11:28:26;54274.31;;;-144.14;82.64
7075;BME280;3578;51.568;6.932;2023-07-29T11:30:54;54286.34;;;-144.14;82.33
7075;BME280;3578;51.568;6.932;2023-07-29T11:33:25;54384.56;;;-144.14;81.82
7075;BME280;3578;51.568;6.932;2023-07-29T11:35:54;54446.72;;;-144.14;79.49
7075;BME280;3578;51.568;6.932;2023-07-29T11:38:22;54448.72;;;-144.14;79.56
7075;BME280;3578;51.568;6.932;2023-07-29T11:40:58;54418.66;;;-144.14;80.00
7075;BME280;3578;51.568;6.932;2023-07-29T11:43:26;54404.63;;;-144.14;81.75
7075;BME280;3578;51.568;6.932;2023-07-29T11:45:53;54358.50;;;-144.14;81.14
7075;BME280;3578;51.568;6.932;2023-07-29T11:48:31;54262.28;;;-144.14;84.72
7075;BME280;3578;51.568;6.932;2023-07-29T11:50:58;54208.16;;;-144.14;86.94
7075;BME280;3578;51.568;6.932;2023-07-29T11:53:28;54222.19;;;-144.14;87.69
7075;BME280;3578;51.568;6.932;2023-07-29T11:55:56;54272.31;;;-144.14;87.23
7075;BME280;3578;51.568;6.932;2023-07-29T11:58:23;54272.31;;;-144.14;87.62
7075;BME280;3578;51.568;6.932;2023-07-29T12:00:51;54288.34;;;-144.14;86.24
7075;BME280;3578;51.568;6.932;2023-07-29T12:03:18;54362.53;;;-144.14;84.51
7075;BME280;3578;51.568;6.932;2023-07-29T12:05:47;54424.69;;;-144.14;83.63
7075;BME280;3578;51.568;6.932;2023-07-29T12:08:15;54440.72;;;-144.14;82.60
7075;BME280;3578;51.568;6.932;2023-07-29T12:10:42;54508.88;;;-144.14;80.08
7075;BME280;3578;51.568;6.932;2023-07-29T12:13:09;54518.91;;;-144.14;80.16
7075;BME280;3578;51.568;6.932;2023-07-29T12:15:38;54504.88;;;-144.14;79.78
7075;BME280;3578;51.568;6.932;2023-07-29T12:18:06;54540.94;;;-144.14;79.69
7075;BME280;3578;51.568;6.932;2023-07-29T12:20:33;54516.91;;;-144.14;78.65
7075;BME280;3578;51.568;6.932;2023-07-29T12:23:02;54516.91;;;-144.14;78.15
7075;BME280;3578;51.568;6.932;2023-07-29T12:25:31;54581.06;;;-144.14;78.45
7075;BME280;3578;51.568;6.932;2023-07-29T12:28:03;54611.13;;;-144.14;79.05
7075;BME280;3578;51.568;6.932;2023-07-29T12:30:30;54613.13;;;-144.14;78.41
7075;BME280;3578;51.568;6.932;2023-07-29T12:32:57;54725.41;;;-144.14;78.18
7075;BME280;3578;51.568;6.932;2023-07-29T12:35:34;54769.50;;;-144.14;74.50
7075;BME280;3578;51.568;6.932;2023-07-29T12:38:03;54893.81;;;-144.14;71.63
7075;BME280;3578;51.568;6.932;2023-07-29T12:40:30;54917.88;;;-144.14;71.59
7075;BME280;3578;51.568;6.932;2023-07-29T12:42:57;54949.97;;;-144.14;68.99
7075;BME280;3578;51.568;6.932;2023-07-29T12:45:24;54927.91;;;-144.14;68.35
7075;BME280;3578;51.568;6.932;2023-07-29T12:47:52;54869.78;;;-144.14;73.32
7075;BME280;3578;51.568;6.932;2023-07-29T12:50:19;54861.75;;;-144.14;73.84
7075;BME280;3578;51.568;6.932;2023-07-29T12:52:46;54841.69;;;-144.14;72.30
7075;BME280;3578;51.568;6.932;2023-07-29T12:55:15;54837.69;;;-144.14;74.44
7075;BME280;3578;51.568;6.932;2023-07-29T12:57:42;54877.78;;;-144.14;73.48
7075;BME280;3578;51.568;6.932;2023-07-29T13:00:11;54887.81;;;-144.14;73.01